createdAt,value
2023-11-07T00:07:50.299Z,11.02
2023-11-07T00:22:42.434Z,11.02
2023-11-07T00:37:36.235Z,11.05
2023-11-07T00:52:29.796Z,11.08
2023-11-07T01:07:21.948Z,11.04
2023-11-07T01:22:13.846Z,11.05
2023-11-07T01:37:04.527Z,11.00
2023-11-07T01:52:06.044Z,10.98
2023-11-07T02:07:08.468Z,10.94
2023-11-07T02:21:59.929Z,10.92
2023-11-07T02:36:53.552Z,10.86
2023-11-07T02:51:46.630Z,10.76
2023-11-07T03:06:38.224Z,10.78
2023-11-07T03:21:30.872Z,10.76
2023-11-07T03:36:23.075Z,10.70
2023-11-07T04:36:20.900Z,11.01
2023-11-07T06:35:25.913Z,10.87
2023-11-07T06:50:16.449Z,10.82
2023-11-07T07:05:08.950Z,10.89
2023-11-07T07:20:01.486Z,10.86
2023-11-07T07:34:53.033Z,10.98
2023-11-07T07:49:45.496Z,11.08
2023-11-07T08:04:48.506Z,11.11
2023-11-07T08:19:39.828Z,11.29
2023-11-07T08:34:32.025Z,11.23
2023-11-07T08:49:24.193Z,11.24
2023-11-07T09:04:15.583Z,11.27
2023-11-07T09:19:07.618Z,11.34
2023-11-07T09:33:58.883Z,11.38
2023-11-07T09:48:49.960Z,11.44
2023-11-07T10:03:41.696Z,11.42
2023-11-07T10:18:32.444Z,11.16
2023-11-07T10:33:28.303Z,11.13
2023-11-07T10:48:24.031Z,11.25
2023-11-07T11:03:16.611Z,11.30
2023-11-07T11:18:09.570Z,11.36
2023-11-07T11:33:09.609Z,11.43
2023-11-07T11:48:05.850Z,11.60
2023-11-07T12:02:59.508Z,11.93
2023-11-07T12:17:52.775Z,11.88
2023-11-07T12:32:46.957Z,12.04
2023-11-07T12:47:42.667Z,12.17
2023-11-07T13:02:34.588Z,12.21
2023-11-07T13:17:27.630Z,12.34
2023-11-07T13:32:17.177Z,11.96
2023-11-07T13:47:08.087Z,12.03
2023-11-07T14:01:59.988Z,11.81
2023-11-07T14:16:51.074Z,11.74
2023-11-07T14:46:37.511Z,11.30
2023-11-07T15:01:28.893Z,11.21
2023-11-07T15:16:21.112Z,11.21
2023-11-07T15:46:04.258Z,11.12
2023-11-07T16:15:49.521Z,10.78
2023-11-07T16:45:32.579Z,10.48
2023-11-07T18:30:07.366Z,10.25
2023-11-07T18:45:01.367Z,9.98
2023-11-07T18:59:54.512Z,9.89
2023-11-07T19:14:45.545Z,9.84
2023-11-07T19:29:37.267Z,9.81
2023-11-07T19:44:28.826Z,9.76
2023-11-07T19:59:19.896Z,9.73
2023-11-07T20:14:10.206Z,9.65
2023-11-07T20:29:01.274Z,9.63
2023-11-07T20:43:53.787Z,9.54
2023-11-07T20:58:45.501Z,9.40
2023-11-07T21:13:37.036Z,9.31
2023-11-07T21:28:30.001Z,9.31
2023-11-07T21:43:22.501Z,9.25
2023-11-07T21:58:14.013Z,9.15
2023-11-07T22:13:05.237Z,9.10
2023-11-07T22:27:56.284Z,9.08
2023-11-07T22:42:48.202Z,9.08
2023-11-07T22:57:39.778Z,9.12
2023-11-07T23:12:31.685Z,9.12
2023-11-07T23:27:23.356Z,9.11
2023-11-07T23:42:16.199Z,9.10
2023-11-07T23:57:10.437Z,9.05
